Time;durP1;ratioP1;P1;durP2;ratioP2;P2;SDS_P1;SDS_P2;PMS_P1;PMS_P2;Temp;Humidity;BMP_temperature;BMP_pressure;BME280_temperature;BME280_humidity;BME280_pressure;Samples;Min_cycle;Max_cycle;Signal;HPM_P1;HPM_P2
2022/06/03 00:00:43;;;;;;;;;;;;;;;26.45;43.59;94277.97;4988031;28;7497;-64
2022/06/03 00:03:28;;;;;;;;;;;;;;;26.43;42.84;94270.25;5001006;28;8756;-64
2022/06/03 00:06:36;;;;;;;;;;;;;;;26.43;43.15;94275.75;5000648;28;7279;-64
2022/06/03 00:09:18;;;;;;;;;;;;;;;26.42;43.55;94274.28;4984505;28;7085;-64
2022/06/03 00:11:58;;;;;;;;;;;;;;;26.42;42.96;94282.56;4984973;28;7296;-64
2022/06/03 00:14:40;;;;;;;;;;;;;;;26.42;43.24;94290.81;5001715;28;7219;-64
2022/06/03 00:17:40;;;;;;;;;;;;;;;26.42;43.04;94281.78;4998466;28;6947;-64
2022/06/03 00:20:27;;;;;;;;;;;;;;;26.39;43.81;94274.56;5005408;28;9037;-64
2022/06/03 00:23:14;;;;;;;;;;;;;;;26.38;42.94;94282.06;4980259;28;7073;-64
2022/06/03 00:25:59;;;;;;;;;;;;;;;26.39;43.04;94282.81;5043291;28;7236;-64
2022/06/03 00:28:56;;;;;;;;;;;;;;;26.41;42.82;94283.03;5031288;28;7350;-63
2022/06/03 00:31:59;;;;;;;;;;;;;;;26.42;43.18;94279.03;5050299;28;7008;-64
2022/06/03 00:38:41;;;;;;;;;;;;;;;26.39;43.70;94288.34;5026579;28;7283;-64
2022/06/03 00:41:25;;;;;;;;;;;;;;;26.38;42.93;94278.59;5001348;28;7404;-64
2022/06/03 00:44:34;;;;;;;;;;;;;;;26.36;42.99;94281.13;5019292;28;8475;-64
2022/06/03 00:47:36;;;;;;;;;;;;;;;26.36;43.52;94281.84;4999449;28;8632;-64
2022/06/03 00:50:47;;;;;;;;;;;;;;;26.37;43.65;94279.84;5016327;28;7529;-64
2022/06/03 00:53:29;;;;;;;;;;;;;;;26.37;43.17;94291.63;5010232;28;9436;-64
2022/06/03 00:56:41;;;;;;;;;;;;;;;26.38;43.62;94300.66;5023466;28;7458;-64
2022/06/03 01:02:50;;;;;;;;;;;;;;;26.35;42.90;94291.41;5012591;28;7291;-64
2022/06/03 01:05:35;;;;;;;;;;;;;;;26.34;42.81;94300.19;5005150;28;8174;-64
2022/06/03 01:08:21;;;;;;;;;;;;;;;26.34;42.84;94295.41;5002888;28;7107;-64
2022/06/03 01:10:52;;;;;;;;;;;;;;;26.35;43.27;94296.16;5012296;28;7249;-64
2022/06/03 01:13:33;;;;;;;;;;;;;;;26.34;42.62;94289.88;5003676;28;7381;-64
2022/06/03 01:16:12;;;;;;;;;;;;;;;26.35;43.40;94285.13;5046628;28;9777;-63
2022/06/03 01:18:54;;;;;;;;;;;;;;;26.35;43.48;94285.13;5038907;28;9169;-64
2022/06/03 01:22:09;;;;;;;;;;;;;;;26.35;43.14;94296.91;5059015;28;7228;-64
2022/06/03 01:25:00;;;;;;;;;;;;;;;26.33;43.26;94296.69;5039475;28;7188;-64
2022/06/03 01:27:57;;;;;;;;;;;;;;;26.34;43.27;94292.66;5040671;28;9125;-64
2022/06/03 01:31:04;;;;;;;;;;;;;;;26.35;43.49;94288.63;5046054;28;7265;-64
2022/06/03 01:34:08;;;;;;;;;;;;;;;26.35;43.17;94283.13;4987389;28;9130;-64
2022/06/03 01:37:12;;;;;;;;;;;;;;;26.35;42.46;94291.41;4972986;28;7068;-64
2022/06/03 01:40:30;;;;;;;;;;;;;;;26.36;43.08;94283.88;4971503;28;7105;-64
2022/06/03 01:43:43;;;;;;;;;;;;;;;26.37;43.06;94290.88;4980321;28;7197;-63
2022/06/03 01:46:25;;;;;;;;;;;;;;;26.31;43.31;94282.66;4960902;28;8742;-64
2022/06/03 01:49:11;;;;;;;;;;;;;;;26.31;42.53;94273.66;4993683;28;7274;-64
2022/06/03 01:52:25;;;;;;;;;;;;;;;26.33;43.15;94273.88;4989785;28;9574;-64
2022/06/03 01:55:24;;;;;;;;;;;;;;;26.33;42.78;94276.63;4966345;28;9313;-64
2022/06/03 01:58:12;;;;;;;;;;;;;;;26.31;43.13;94279.91;4974842;28;7002;-64
2022/06/03 02:01:24;;;;;;;;;;;;;;;26.31;42.64;94285.44;4972447;28;7204;-64
2022/06/03 02:04:39;;;;;;;;;;;;;;;26.31;42.89;94274.41;4967260;28;9109;-64
2022/06/03 02:07:32;;;;;;;;;;;;;;;26.29;42.33;94271.41;4967996;28;7182;-64
2022/06/03 02:10:19;;;;;;;;;;;;;;;26.31;42.87;94281.91;4982721;28;8983;-64
2022/06/03 02:13:21;;;;;;;;;;;;;;;26.30;42.44;94278.41;5019005;28;9110;-64
2022/06/03 02:16:02;;;;;;;;;;;;;;;26.31;42.36;94284.69;5022006;28;7399;-63
2022/06/03 02:19:12;;;;;;;;;;;;;;;26.28;42.87;94277.44;5024545;28;9118;-64
2022/06/03 02:22:09;;;;;;;;;;;;;;;26.27;43.13;94271.19;4997825;28;7238;-64
2022/06/03 02:24:56;;;;;;;;;;;;;;;26.27;43.35;94273.19;5000848;28;7220;-64
2022/06/03 02:27:38;;;;;;;;;;;;;;;26.27;42.99;94273.94;5009180;28;8787;-64
2022/06/03 02:30:26;;;;;;;;;;;;;;;26.26;42.97;94277.19;5047224;28;7226;-64
2022/06/03 02:33:12;;;;;;;;;;;;;;;26.27;42.56;94273.94;5049974;28;8794;-64
2022/06/03 02:36:06;;;;;;;;;;;;;;;26.28;43.21;94277.44;5037600;28;7523;-64
2022/06/03 02:39:02;;;;;;;;;;;;;;;26.27;42.71;94290.50;5056040;28;8837;-64
2022/06/03 02:41:56;;;;;;;;;;;;;;;26.27;43.08;94284.97;5048494;28;7149;-64
2022/06/03 02:44:46;;;;;;;;;;;;;;;26.28;43.15;94280.19;5056772;28;9543;-64
2022/06/03 02:47:33;;;;;;;;;;;;;;;26.27;42.17;94273.94;5046318;28;9104;-64
2022/06/03 02:50:20;;;;;;;;;;;;;;;26.27;43.20;94273.19;5050058;28;7127;-64
2022/06/03 02:53:15;;;;;;;;;;;;;;;26.27;43.23;94270.44;5036147;28;7294;-64
2022/06/03 02:56:28;;;;;;;;;;;;;;;26.27;42.74;94271.19;5050656;28;8802;-64
2022/06/03 02:59:41;;;;;;;;;;;;;;;26.26;42.23;94280.72;5066867;28;8134;-64
2022/06/03 03:02:24;;;;;;;;;;;;;;;26.27;42.09;94279.47;4990553;28;8956;-64
2022/06/03 03:05:17;;;;;;;;;;;;;;;26.26;42.61;94274.44;5004706;28;7802;-64
2022/06/03 03:07:55;;;;;;;;;;;;;;;26.27;42.65;94284.22;5009477;28;7081;-64
2022/06/03 03:10:47;;;;;;;;;;;;;;;26.26;42.60;94285.47;5011363;28;8789;-64
2022/06/03 03:13:26;;;;;;;;;;;;;;;26.25;42.85;94286.75;5008314;28;8817;-64
2022/06/03 03:16:08;;;;;;;;;;;;;;;26.24;42.49;94286.00;5004634;28;9068;-64
2022/06/03 03:19:20;;;;;;;;;;;;;;;26.25;42.41;94286.75;4992515;28;7278;-64
2022/06/03 03:22:11;;;;;;;;;;;;;;;26.24;42.75;94282.50;5010409;28;7892;-64
2022/06/03 03:24:49;;;;;;;;;;;;;;;26.23;42.61;94278.25;4915265;29;9467;-64
2022/06/03 03:27:31;;;;;;;;;;;;;;;26.22;42.98;94274.75;4914360;29;6970;-64
2022/06/03 03:30:20;;;;;;;;;;;;;;;26.22;42.81;94279.50;4915964;29;9203;-64
2022/06/03 03:33:19;;;;;;;;;;;;;;;26.20;42.36;94269.00;4917020;29;7413;-64
2022/06/03 03:36:11;;;;;;;;;;;;;;;26.20;42.16;94259.97;4905893;29;7368;-64
2022/06/03 03:39:00;;;;;;;;;;;;;;;26.20;42.52;94262.75;4911344;29;9398;-63
2022/06/03 03:41:42;;;;;;;;;;;;;;;26.16;42.15;94261.00;4914790;29;7168;-63
2022/06/03 03:45:05;;;;;;;;;;;;;;;26.18;42.31;94260.50;4914821;29;7230;-64
2022/06/03 03:48:08;;;;;;;;;;;;;;;26.17;43.10;94251.47;4876212;29;7260;-63
2022/06/03 03:50:53;;;;;;;;;;;;;;;26.20;42.53;94257.22;4876940;29;9212;-63
2022/06/03 03:53:41;;;;;;;;;;;;;;;26.17;42.06;94265.25;4875816;29;8729;-63
2022/06/03 03:56:38;;;;;;;;;;;;;;;26.17;43.05;94265.25;4874988;29;7086;-64
2022/06/03 03:59:16;;;;;;;;;;;;;;;26.16;41.98;94258.25;4871873;29;9108;-64
2022/06/03 04:01:56;;;;;;;;;;;;;;;26.17;42.07;94270.78;4890604;29;9108;-64
2022/06/03 04:04:24;;;;;;;;;;;;;;;26.15;42.11;94267.78;4903728;29;9317;-64
2022/06/03 04:06:57;;;;;;;;;;;;;;;26.15;43.12;94267.78;4918055;29;7309;-64
2022/06/03 04:09:53;;;;;;;;;;;;;;;26.18;42.17;94266.03;4909820;29;7201;-63
2022/06/03 04:12:43;;;;;;;;;;;;;;;26.16;42.64;94254.78;4909261;29;6986;-64
2022/06/03 04:15:58;;;;;;;;;;;;;;;26.14;42.96;94243.50;4931729;28;7010;-64
2022/06/03 04:19:00;;;;;;;;;;;;;;;26.15;41.95;94245.75;4947845;28;7663;-64
2022/06/03 04:21:56;;;;;;;;;;;;;;;26.14;42.74;94255.25;5002380;28;9102;-63
2022/06/03 04:24:51;;;;;;;;;;;;;;;26.12;41.95;94255.03;4988735;28;7484;-64
2022/06/03 04:27:40;;;;;;;;;;;;;;;26.12;42.27;94252.28;4998221;28;9400;-64
2022/06/03 04:30:27;;;;;;;;;;;;;;;26.13;42.39;94253.78;4997669;28;7259;-64
2022/06/03 04:33:13;;;;;;;;;;;;;;;26.13;42.67;94240.00;4988111;28;7176;-64
2022/06/03 04:36:13;;;;;;;;;;;;;;;26.12;42.40;94243.28;4991726;28;9444;-64
2022/06/03 04:39:24;;;;;;;;;;;;;;;26.12;42.56;94244.00;4998478;28;6982;-64
2022/06/03 04:42:02;;;;;;;;;;;;;;;26.11;42.88;94242.53;4989776;28;9056;-64
2022/06/03 04:45:11;;;;;;;;;;;;;;;26.11;42.37;94237.03;4997063;28;7341;-64
2022/06/03 04:51:16;;;;;;;;;;;;;;;26.11;42.90;94228.75;5001727;28;8139;-64
2022/06/03 04:54:26;;;;;;;;;;;;;;;26.13;42.41;94228.97;5004044;28;9111;-63
2022/06/03 04:57:29;;;;;;;;;;;;;;;26.13;42.74;94234.50;5052403;28;7249;-64
2022/06/03 05:00:45;;;;;;;;;;;;;;;26.14;41.67;94238.72;5052093;28;9090;-64
2022/06/03 05:03:49;;;;;;;;;;;;;;;26.16;42.73;94236.19;4994833;28;8413;-63
2022/06/03 05:06:52;;;;;;;;;;;;;;;26.10;42.86;94232.75;4977250;28;7625;-64
2022/06/03 05:09:56;;;;;;;;;;;;;;;26.11;41.79;94231.50;4993751;28;9090;-64
2022/06/03 05:12:55;;;;;;;;;;;;;;;26.09;42.35;94239.56;4989183;28;8805;-64
2022/06/03 05:15:50;;;;;;;;;;;;;;;26.09;42.06;94236.78;4983581;28;9317;-63
2022/06/03 05:18:52;;;;;;;;;;;;;;;26.07;42.32;94238.53;4973188;28;9757;-63
2022/06/03 05:21:46;;;;;;;;;;;;;;;26.06;42.88;94240.53;4973880;28;7229;-64
2022/06/03 05:24:36;;;;;;;;;;;;;;;26.03;42.30;94233.31;4998444;28;7901;-64
2022/06/03 05:27:25;;;;;;;;;;;;;;;26.02;42.26;94229.06;4984213;28;7130;-63
2022/06/03 05:30:21;;;;;;;;;;;;;;;26.01;42.20;94222.06;4993418;28;6964;-63
2022/06/03 05:32:51;;;;;;;;;;;;;;;26.01;42.30;94218.56;4984853;28;9057;-63
2022/06/03 05:35:31;;;;;;;;;;;;;;;26.00;42.05;94226.09;4982490;28;7682;-63
2022/06/03 05:38:34;;;;;;;;;;;;;;;26.03;42.77;94219.53;4996404;28;7406;-63
2022/06/03 05:44:40;;;;;;;;;;;;;;;26.03;42.95;94221.56;5052963;28;7062;-63
2022/06/03 05:47:39;;;;;;;;;;;;;;;26.04;42.79;94223.03;5052199;28;8780;-63
2022/06/03 05:50:05;;;;;;;;;;;;;;;26.05;42.77;94208.75;4950237;28;6987;-63
2022/06/03 05:52:48;;;;;;;;;;;;;;;26.06;42.46;94199.19;4936794;28;7139;-63
2022/06/03 05:55:24;;;;;;;;;;;;;;;26.06;42.01;94199.19;4947628;28;7171;-63
2022/06/03 05:58:19;;;;;;;;;;;;;;;26.05;42.72;94203.25;4958206;28;7261;-63
2022/06/03 06:00:50;;;;;;;;;;;;;;;26.07;42.68;94203.47;4957007;28;9175;-64
2022/06/03 06:03:28;;;;;;;;;;;;;;;26.09;41.71;94208.47;4941969;28;7211;-63
2022/06/03 06:06:39;;;;;;;;;;;;;;;26.06;42.98;94203.97;4963727;28;7217;-64
2022/06/03 06:09:43;;;;;;;;;;;;;;;26.05;42.23;94203.25;4909422;29;7810;-63
2022/06/03 06:12:28;;;;;;;;;;;;;;;26.05;42.32;94211.50;4908510;29;9125;-63
2022/06/03 06:15:27;;;;;;;;;;;;;;;26.04;42.09;94212.75;4904825;29;6891;-63
2022/06/03 06:18:00;;;;;;;;;;;;;;;26.04;42.67;94207.25;4905109;29;7275;-63
2022/06/03 06:20:48;;;;;;;;;;;;;;;26.04;42.26;94203.75;4903027;29;7130;-63
2022/06/03 06:24:07;;;;;;;;;;;;;;;26.03;42.18;94208.50;4909534;29;8763;-63
2022/06/03 06:26:56;;;;;;;;;;;;;;;26.03;43.35;94200.22;4910846;28;7289;-63
2022/06/03 06:29:50;;;;;;;;;;;;;;;26.02;43.27;94204.25;4939233;28;7074;-63
2022/06/03 06:33:06;;;;;;;;;;;;;;;25.99;43.83;94207.31;4936587;28;7222;-63
2022/06/03 06:36:11;;;;;;;;;;;;;;;26.02;43.03;94220.81;4931552;28;8763;-63
2022/06/03 06:38:44;;;;;;;;;;;;;;;26.01;43.79;94216.53;4951575;28;7464;-63
2022/06/03 06:41:29;;;;;;;;;;;;;;;26.00;44.37;94215.06;4932485;28;9120;-63
2022/06/03 06:44:22;;;;;;;;;;;;;;;26.01;44.17;94218.56;4950126;28;9067;-63
2022/06/03 06:47:06;;;;;;;;;;;;;;;26.01;44.09;94216.53;5000079;28;9513;-63
2022/06/03 06:50:08;;;;;;;;;;;;;;;25.98;43.65;94214.84;5006445;28;7250;-63
2022/06/03 06:53:27;;;;;;;;;;;;;;;25.99;44.60;94216.31;4984989;28;9105;-63
2022/06/03 06:56:29;;;;;;;;;;;;;;;25.99;44.18;94219.06;4986459;28;7210;-63
2022/06/03 06:59:08;;;;;;;;;;;;;;;26.01;43.87;94221.31;4913472;29;7193;-62
2022/06/03 07:01:51;;;;;;;;;;;;;;;25.99;44.00;94221.81;4936206;28;7534;-62
2022/06/03 07:04:34;;;;;;;;;;;;;;;26.00;44.59;94219.81;4931666;28;7580;-63
2022/06/03 07:07:17;;;;;;;;;;;;;;;26.00;44.44;94217.81;4952085;28;7012;-62
2022/06/03 07:09:53;;;;;;;;;;;;;;;26.01;44.54;94211.03;4949620;28;7005;-63
2022/06/03 07:12:38;;;;;;;;;;;;;;;26.03;45.34;94205.75;4951952;28;9131;-62
2022/06/03 07:15:24;;;;;;;;;;;;;;;26.03;45.31;94202.25;4936074;28;7244;-63
2022/06/03 07:21:42;;;;;;;;;;;;;;;26.05;45.60;94194.97;4949305;28;9138;-63
2022/06/03 07:25:00;;;;;;;;;;;;;;;26.06;44.82;94187.44;4875591;29;9112;-63
2022/06/03 07:27:50;;;;;;;;;;;;;;;26.04;45.34;94178.94;4830474;29;7100;-62
2022/06/03 07:30:32;;;;;;;;;;;;;;;26.05;44.83;94172.16;4856516;29;6998;-62
2022/06/03 07:33:27;;;;;;;;;;;;;;;26.05;45.18;94174.94;4852954;29;7288;-63
2022/06/03 07:36:01;;;;;;;;;;;;;;;26.05;44.90;94172.91;4887891;29;9844;-63
2022/06/03 07:39:13;;;;;;;;;;;;;;;26.07;44.79;94175.91;4900584;29;9037;-63
2022/06/03 07:41:52;;;;;;;;;;;;;;;26.07;45.26;94177.91;4871339;29;7442;-62
2022/06/03 07:44:24;;;;;;;;;;;;;;;26.05;45.35;94172.91;4871513;29;7236;-63
2022/06/03 07:47:06;;;;;;;;;;;;;;;26.12;44.75;94172.34;4872487;29;7216;-64
2022/06/03 07:49:38;;;;;;;;;;;;;;;26.22;44.79;94178.25;4851518;29;8038;-63
2022/06/03 07:52:19;;;;;;;;;;;;;;;26.56;43.44;94164.75;4865781;29;8673;-63
2022/06/03 07:55:12;;;;;;;;;;;;;;;26.68;43.79;94164.09;4863714;29;7274;-64
2022/06/03 07:57:40;;;;;;;;;;;;;;;26.67;43.65;94161.84;4873825;29;7272;-63
2022/06/03 08:00:19;;;;;;;;;;;;;;;26.60;43.95;94154.91;4889450;29;6996;-63
2022/06/03 08:03:18;;;;;;;;;;;;;;;26.55;44.07;94155.75;4951711;28;9088;-63
2022/06/03 08:06:08;;;;;;;;;;;;;;;26.47;43.72;94156.88;4967744;28;8776;-63
2022/06/03 08:11:44;;;;;;;;;;;;;;;26.38;44.11;94143.47;4984816;28;9089;-63
2022/06/03 08:14:11;;;;;;;;;;;;;;;26.33;44.66;94147.03;4969780;28;9243;-63
2022/06/03 08:16:46;;;;;;;;;;;;;;;26.30;44.60;94139.78;5039227;28;7180;-63
2022/06/03 08:19:21;;;;;;;;;;;;;;;26.29;44.26;94139.06;5050873;28;7317;-63
2022/06/03 08:21:54;;;;;;;;;;;;;;;26.28;44.47;94136.81;5042241;28;8817;-63
2022/06/03 08:24:52;;;;;;;;;;;;;;;26.27;44.21;94127.06;5051837;28;7441;-63
2022/06/03 08:27:25;;;;;;;;;;;;;;;26.24;44.93;94112.31;4987689;28;9235;-63
2022/06/03 08:29:56;;;;;;;;;;;;;;;26.23;44.09;94110.09;4969143;28;7360;-63
2022/06/03 08:33:01;;;;;;;;;;;;;;;26.21;43.99;94096.06;4969209;28;8784;-63
2022/06/03 08:35:34;;;;;;;;;;;;;;;26.19;45.02;94093.09;4983701;28;9184;-64
2022/06/03 08:38:10;;;;;;;;;;;;;;;26.17;44.40;94094.34;4967004;28;7083;-63
2022/06/03 08:41:01;;;;;;;;;;;;;;;26.21;44.26;94090.56;4964566;28;8048;-63
2022/06/03 08:43:32;;;;;;;;;;;;;;;26.21;44.55;94093.31;4966848;28;7728;-63
2022/06/03 08:46:15;;;;;;;;;;;;;;;26.21;44.45;94093.31;4980524;28;9458;-64
2022/06/03 08:48:45;;;;;;;;;;;;;;;26.22;44.21;94097.56;4978446;28;9134;-63
2022/06/03 08:51:21;;;;;;;;;;;;;;;26.20;43.87;94078.03;4971858;28;9558;-63
2022/06/03 08:53:54;;;;;;;;;;;;;;;26.21;44.81;94077.50;4980701;28;7050;-63
2022/06/03 08:56:32;;;;;;;;;;;;;;;26.22;44.71;94084.53;4971698;28;7268;-63
2022/06/03 08:59:16;;;;;;;;;;;;;;;26.21;44.48;94071.28;4977837;28;9497;-64
2022/06/03 09:02:07;;;;;;;;;;;;;;;26.21;45.88;94072.00;4971348;28;9115;-63
2022/06/03 09:05:18;;;;;;;;;;;;;;;26.23;45.18;94074.97;5033547;28;7429;-63
2022/06/03 09:08:10;;;;;;;;;;;;;;;26.23;44.94;94080.47;4972435;28;9007;-63
2022/06/03 09:10:52;;;;;;;;;;;;;;;26.25;45.13;94074.47;4935412;28;9126;-63
2022/06/03 09:14:00;;;;;;;;;;;;;;;26.27;44.66;94069.16;4935564;28;7743;-64
2022/06/03 09:16:41;;;;;;;;;;;;;;;26.26;44.04;94056.63;4892230;29;9075;-64
2022/06/03 09:19:25;;;;;;;;;;;;;;;26.25;44.44;94058.69;4889354;29;7528;-63
2022/06/03 09:22:13;;;;;;;;;;;;;;;26.25;44.84;94049.66;4889889;29;7485;-64
2022/06/03 09:24:43;;;;;;;;;;;;;;;26.24;44.87;94056.41;4893663;29;7118;-64
2022/06/03 09:27:13;;;;;;;;;;;;;;;26.22;44.62;94047.94;4876348;29;7366;-64
2022/06/03 09:29:48;;;;;;;;;;;;;;;26.24;44.56;94037.13;4892223;29;8740;-64
2022/06/03 09:32:38;;;;;;;;;;;;;;;26.27;43.91;94036.09;4893549;29;7265;-64
2022/06/03 09:35:11;;;;;;;;;;;;;;;26.28;44.07;94023.78;4887367;29;7891;-64
2022/06/03 09:37:54;;;;;;;;;;;;;;;26.28;44.80;94032.03;4891056;29;7421;-64
2022/06/03 09:40:31;;;;;;;;;;;;;;;26.28;44.56;94040.31;4892397;29;7046;-63
2022/06/03 09:43:33;;;;;;;;;;;;;;;26.28;44.72;94038.31;4892712;29;8965;-63
2022/06/03 09:46:17;;;;;;;;;;;;;;;26.29;44.00;94036.31;4878378;29;7328;-64
2022/06/03 09:48:45;;;;;;;;;;;;;;;26.30;43.87;94035.78;4967409;28;7892;-63
2022/06/03 09:51:55;;;;;;;;;;;;;;;26.31;44.62;94031.00;4965172;28;7350;-64
2022/06/03 09:54:28;;;;;;;;;;;;;;;26.32;44.10;94038.03;4981252;28;8985;-63
2022/06/03 09:57:05;;;;;;;;;;;;;;;26.32;43.97;94032.50;4976583;28;8760;-63
2022/06/03 09:59:37;;;;;;;;;;;;;;;26.34;47.56;94024.47;4975588;28;9232;-64
2022/06/03 10:02:10;;;;;;;;;;;;;;;26.37;45.68;94026.91;4969764;28;9078;-63
2022/06/03 10:04:51;;;;;;;;;;;;;;;26.35;45.10;94025.94;4970033;28;7243;-64
2022/06/03 10:07:20;;;;;;;;;;;;;;;26.39;44.53;94023.59;4972282;28;8784;-63
2022/06/03 10:13:08;;;;;;;;;;;;;;;26.39;44.29;94023.59;4911495;29;7966;-63
2022/06/03 10:15:46;;;;;;;;;;;;;;;26.42;45.23;94041.88;4898958;29;9186;-63
2022/06/03 10:18:51;;;;;;;;;;;;;;;26.43;45.26;94046.84;4906670;29;9120;-63
2022/06/03 10:21:48;;;;;;;;;;;;;;;26.44;45.97;94044.84;4911284;28;7421;-63
2022/06/03 10:25:02;;;;;;;;;;;;;;;26.46;45.19;94042.31;4959403;28;8776;-63
2022/06/03 10:27:28;;;;;;;;;;;;;;;26.46;45.25;94034.78;4891274;29;6999;-63
2022/06/03 10:29:59;;;;;;;;;;;;;;;26.47;44.48;94041.78;4897431;29;8926;-63
2022/06/03 10:32:51;;;;;;;;;;;;;;;26.50;45.14;94042.75;4904997;29;9278;-63
2022/06/03 10:35:39;;;;;;;;;;;;;;;26.54;45.17;94040.41;4891772;29;9467;-63
2022/06/03 10:38:17;;;;;;;;;;;;;;;26.52;44.95;94043.72;4890316;29;7867;-63
2022/06/03 10:40:52;;;;;;;;;;;;;;;26.53;46.23;94044.47;4911577;29;7886;-63
2022/06/03 10:43:33;;;;;;;;;;;;;;;26.53;45.61;94047.22;4894808;29;7806;-63
2022/06/03 10:46:15;;;;;;;;;;;;;;;26.55;45.77;94052.97;4896166;29;7389;-63
2022/06/03 10:48:52;;;;;;;;;;;;;;;26.56;46.30;94062.69;4913443;28;9043;-63
2022/06/03 11:01:06;;;;;;;;;;;;;;;26.54;46.15;94063.25;4945615;28;8844;-63
2022/06/03 11:02:56;;;;;;;;;;;;;;;26.57;46.56;94092.53;4978578;28;9189;-62
2022/06/03 11:05:30;;;;;;;;;;;;;;;26.57;45.94;94097.31;5055359;28;7882;-63
2022/06/03 11:08:05;;;;;;;;;;;;;;;26.58;45.97;94112.56;5040823;28;7102;-63
2022/06/03 11:10:37;;;;;;;;;;;;;;;26.58;46.96;94126.38;5055519;28;7404;-63
2022/06/03 11:13:06;;;;;;;;;;;;;;;26.59;46.07;94127.88;5049121;28;7415;-63
2022/06/03 11:16:21;;;;;;;;;;;;;;;26.58;46.75;94129.13;5059605;28;7439;-63
2022/06/03 11:18:48;;;;;;;;;;;;;;;26.58;46.23;94129.88;5035067;28;7215;-63
2022/06/03 11:21:26;;;;;;;;;;;;;;;26.58;46.24;94131.88;5035586;28;7640;-63
2022/06/03 11:23:56;;;;;;;;;;;;;;;26.59;46.42;94119.59;5054334;28;9419;-63
2022/06/03 11:26:33;;;;;;;;;;;;;;;26.58;45.86;94132.63;5038727;28;9161;-63
2022/06/03 11:29:11;;;;;;;;;;;;;;;26.59;46.50;94131.38;5033414;28;8297;-63
2022/06/03 11:31:44;;;;;;;;;;;;;;;26.59;46.75;94142.41;5054563;28;7948;-63
2022/06/03 11:34:36;;;;;;;;;;;;;;;26.58;46.89;94143.66;5038542;28;7157;-63
2022/06/03 11:37:12;;;;;;;;;;;;;;;26.56;45.89;94145.44;5043822;28;6950;-63
2022/06/03 11:39:58;;;;;;;;;;;;;;;26.56;46.08;94143.44;5047159;28;7402;-63
2022/06/03 11:42:24;;;;;;;;;;;;;;;26.57;46.82;94149.72;5045349;28;9193;-63
2022/06/03 11:45:15;;;;;;;;;;;;;;;26.56;45.62;94171.03;5049663;28;9081;-63
2022/06/03 11:47:58;;;;;;;;;;;;;;;26.58;45.86;94167.75;5047104;28;7382;-63
2022/06/03 11:50:28;;;;;;;;;;;;;;;26.58;46.19;94162.22;5038012;28;7263;-64
2022/06/03 11:53:02;;;;;;;;;;;;;;;26.59;46.70;94169.25;5037401;28;7205;-64
2022/06/03 11:55:32;;;;;;;;;;;;;;;26.59;45.83;94166.47;5045283;28;7150;-64
2022/06/03 11:58:22;;;;;;;;;;;;;;;26.60;46.35;94179.03;5038867;28;9224;-64
2022/06/03 12:01:03;;;;;;;;;;;;;;;26.63;46.40;94177.97;4984107;28;7294;-64
2022/06/03 12:03:57;;;;;;;;;;;;;;;26.64;46.39;94174.66;4998137;28;7507;-64
2022/06/03 12:06:43;;;;;;;;;;;;;;;26.67;45.80;94172.88;4999614;28;6991;-64
2022/06/03 12:09:35;;;;;;;;;;;;;;;26.71;46.24;94173.31;5007568;28;7204;-63
2022/06/03 12:15:33;;;;;;;;;;;;;;;26.70;45.54;94180.88;5000507;28;8783;-63
2022/06/03 12:18:12;;;;;;;;;;;;;;;26.70;46.32;94191.91;4990432;28;7177;-64
2022/06/03 12:20:52;;;;;;;;;;;;;;;26.70;46.12;94193.91;4996485;28;8937;-64
2022/06/03 12:23:20;;;;;;;;;;;;;;;26.71;45.42;94192.63;5001626;28;8829;-63
2022/06/03 12:25:48;;;;;;;;;;;;;;;26.67;45.33;94192.94;4989015;28;7293;-63
2022/06/03 12:28:42;;;;;;;;;;;;;;;26.67;46.16;94197.72;4991868;28;7272;-63
2022/06/03 12:31:37;;;;;;;;;;;;;;;26.66;46.25;94199.75;5004869;28;7020;-63
2022/06/03 12:34:26;;;;;;;;;;;;;;;26.65;45.95;94209.28;4985976;28;7272;-63
2022/06/03 12:37:01;;;;;;;;;;;;;;;26.66;45.18;94210.03;4994516;28;8268;-63
2022/06/03 12:39:58;;;;;;;;;;;;;;;26.68;46.31;94219.28;5043915;28;7276;-63
2022/06/03 12:42:26;;;;;;;;;;;;;;;26.70;45.90;94229.78;5060185;28;6978;-63
2022/06/03 12:45:13;;;;;;;;;;;;;;;26.74;45.69;94238.53;5057573;28;7154;-63
2022/06/03 12:47:57;;;;;;;;;;;;;;;26.73;45.68;94246.06;5057476;28;7405;-63
2022/06/03 12:50:34;;;;;;;;;;;;;;;26.72;45.42;94252.84;5050237;28;7437;-63
2022/06/03 12:53:06;;;;;;;;;;;;;;;26.73;45.94;94256.38;5036628;28;8013;-63
2022/06/03 12:55:38;;;;;;;;;;;;;;;26.73;45.56;94268.13;5055647;28;7359;-63
2022/06/03 12:58:34;;;;;;;;;;;;;;;26.73;45.74;94281.94;5057357;28;7234;-63
2022/06/03 13:01:05;;;;;;;;;;;;;;;26.74;45.69;94294.47;5034807;28;9061;-63
2022/06/03 13:03:31;;;;;;;;;;;;;;;26.74;45.50;94297.22;5049038;28;8811;-63
2022/06/03 13:06:05;;;;;;;;;;;;;;;26.77;44.93;94309.97;5043275;28;8883;-63
2022/06/03 13:08:33;;;;;;;;;;;;;;;26.79;44.99;94323.28;5062221;28;7432;-63
2022/06/03 13:11:02;;;;;;;;;;;;;;;26.79;44.90;94343.34;5045788;28;6986;-63
2022/06/03 13:13:29;;;;;;;;;;;;;;;26.78;45.58;94355.63;5055369;28;9149;-63
2022/06/03 13:16:23;;;;;;;;;;;;;;;26.73;45.55;94355.72;5039633;28;6993;-63
2022/06/03 13:18:52;;;;;;;;;;;;;;;26.74;45.26;94366.22;5043802;28;7035;-63
2022/06/03 13:21:24;;;;;;;;;;;;;;;26.77;44.57;94361.69;5039881;28;8214;-64
2022/06/03 13:23:50;;;;;;;;;;;;;;;26.74;45.17;94355.19;5052566;28;7280;-63
2022/06/03 13:26:22;;;;;;;;;;;;;;;26.73;45.44;94361.94;5044591;28;9111;-63
2022/06/03 13:28:59;;;;;;;;;;;;;;;26.73;45.36;94363.97;5041839;28;9318;-65
2022/06/03 13:31:43;;;;;;;;;;;;;;;26.72;45.22;94365.97;5042531;28;7447;-64
2022/06/03 13:34:11;;;;;;;;;;;;;;;26.72;45.77;94356.94;5037023;28;7322;-63
2022/06/03 13:37:16;;;;;;;;;;;;;;;26.71;45.52;94360.94;5048657;28;7111;-64
2022/06/03 13:39:43;;;;;;;;;;;;;;;26.73;44.86;94369.50;4975151;28;7311;-64
2022/06/03 13:45:03;;;;;;;;;;;;;;;26.75;45.32;94361.44;4984436;28;7418;-64
2022/06/03 13:47:54;;;;;;;;;;;;;;;26.76;44.80;94357.41;4969619;28;9454;-64
2022/06/03 13:50:37;;;;;;;;;;;;;;;26.77;45.38;94367.91;4982957;28;7310;-64
2022/06/03 13:53:25;;;;;;;;;;;;;;;26.78;44.86;94363.16;4980915;28;9087;-64
2022/06/03 13:56:07;;;;;;;;;;;;;;;26.79;45.24;94361.91;4972217;28;7305;-64
2022/06/03 13:59:16;;;;;;;;;;;;;;;26.79;44.27;94365.41;4966511;28;7275;-64
2022/06/03 14:01:54;;;;;;;;;;;;;;;26.78;44.69;94369.44;4948654;28;9077;-64
2022/06/03 14:04:27;;;;;;;;;;;;;;;26.80;44.85;94369.66;4951855;28;6870;-64
2022/06/03 14:07:07;;;;;;;;;;;;;;;26.82;44.75;94369.13;4958844;28;7244;-64
2022/06/03 14:09:47;;;;;;;;;;;;;;;26.82;44.57;94363.59;4968612;28;6997;-64
2022/06/03 14:12:42;;;;;;;;;;;;;;;26.83;44.75;94370.63;4950347;28;8746;-64
2022/06/03 14:15:40;;;;;;;;;;;;;;;26.83;44.17;94362.34;4956825;28;7343;-64
2022/06/03 14:18:07;;;;;;;;;;;;;;;26.84;44.14;94358.31;4937081;28;7203;-64
2022/06/03 14:20:41;;;;;;;;;;;;;;;26.83;44.35;94357.59;4930113;28;9041;-64
2022/06/03 14:23:34;;;;;;;;;;;;;;;26.84;44.59;94361.81;4916918;29;7387;-64
2022/06/03 14:26:11;;;;;;;;;;;;;;;26.85;44.26;94357.06;4906485;29;7304;-64
2022/06/03 14:28:45;;;;;;;;;;;;;;;26.85;44.09;94355.06;4925003;29;7184;-64
2022/06/03 14:31:58;;;;;;;;;;;;;;;26.84;44.09;94352.78;4925829;28;6975;-64
2022/06/03 14:35:09;;;;;;;;;;;;;;;26.84;44.48;94359.06;4905721;29;9078;-64
2022/06/03 14:38:18;;;;;;;;;;;;;;;26.84;43.94;94353.53;4834646;29;7069;-63
2022/06/03 14:40:49;;;;;;;;;;;;;;;26.84;43.96;94355.56;4834371;29;7496;-64
2022/06/03 14:43:28;;;;;;;;;;;;;;;26.84;44.00;94352.78;4832224;29;8143;-64
2022/06/03 14:46:04;;;;;;;;;;;;;;;26.83;44.32;94354.06;4839137;29;7241;-64
2022/06/03 14:48:52;;;;;;;;;;;;;;;26.83;44.84;94348.56;4823383;29;8971;-64
2022/06/03 14:51:45;;;;;;;;;;;;;;;26.82;44.80;94350.56;4818063;29;7019;-64
2022/06/03 14:54:34;;;;;;;;;;;;;;;26.85;44.14;94351.53;4863811;29;7371;-64
2022/06/03 14:57:04;;;;;;;;;;;;;;;26.83;44.07;94352.06;4905616;29;7095;-64
2022/06/03 14:59:53;;;;;;;;;;;;;;;26.82;44.25;94347.03;4914033;29;9474;-64
2022/06/03 15:02:57;;;;;;;;;;;;;;;26.84;44.07;94342.50;4912006;29;8949;-64
2022/06/03 15:05:48;;;;;;;;;;;;;;;26.84;43.91;94352.78;4895370;29;9472;-64
2022/06/03 15:08:44;;;;;;;;;;;;;;;26.82;44.06;94350.56;4895069;29;7231;-64
2022/06/03 15:12:03;;;;;;;;;;;;;;;26.83;44.63;94351.31;4956031;28;8742;-64
2022/06/03 15:14:38;;;;;;;;;;;;;;;26.85;44.48;94340.50;4994334;28;9285;-64
2022/06/03 15:17:16;;;;;;;;;;;;;;;26.84;43.97;94342.50;4988119;28;7263;-65
2022/06/03 15:19:51;;;;;;;;;;;;;;;26.83;44.36;94343.78;4987908;28;7173;-64